Time;durP1;ratioP1;P1;durP2;ratioP2;P2;SDS_P1;SDS_P2;PMS_P1;PMS_P2;Temp;Humidity;BMP_temperature;BMP_pressure;BME280_temperature;BME280_humidity;BME280_pressure;Samples;Min_cycle;Max_cycle;Signal;HPM_P1;HPM_P2
2023/12/13 00:02:19;;;;;;;8.57;2.90;;;7.00;99.90;;;;;;5069785;28;20248;-68
2023/12/13 00:04:46;;;;;;;6.37;2.93;;;7.00;99.90;;;;;;5070381;28;20291;-70
2023/12/13 00:07:13;;;;;;;2.97;2.50;;;7.10;99.90;;;;;;5061969;28;20200;-69
2023/12/13 00:09:40;;;;;;;7.53;3.17;;;7.00;99.90;;;;;;5060406;28;20192;-69
2023/12/13 00:12:07;;;;;;;4.97;2.70;;;7.00;99.90;;;;;;5059722;28;20272;-68
2023/12/13 00:14:34;;;;;;;5.10;2.83;;;7.00;99.90;;;;;;5060525;28;20247;-68
2023/12/13 00:17:03;;;;;;;8.43;3.70;;;6.90;99.90;;;;;;5050952;28;20646;-69
2023/12/13 00:19:31;;;;;;;6.63;3.00;;;6.90;99.90;;;;;;5061260;28;20196;-68
2023/12/13 00:21:58;;;;;;;7.10;3.30;;;6.90;99.90;;;;;;5069235;28;20193;-68
2023/12/13 00:24:25;;;;;;;5.03;2.80;;;6.90;99.90;;;;;;5045628;28;20615;-68
2023/12/13 00:26:52;;;;;;;5.00;2.80;;;6.90;99.90;;;;;;5068462;28;20263;-68
2023/12/13 00:29:19;;;;;;;10.47;3.13;;;6.90;99.90;;;;;;5070057;28;20638;-68
2023/12/13 00:31:46;;;;;;;6.23;3.13;;;7.00;99.90;;;;;;5069421;28;20193;-68
2023/12/13 00:34:14;;;;;;;5.00;2.70;;;7.00;99.90;;;;;;5051956;28;20683;-67
2023/12/13 00:36:42;;;;;;;5.90;2.83;;;7.00;99.90;;;;;;5069697;28;20586;-67
2023/12/13 00:39:09;;;;;;;4.23;2.93;;;7.00;99.90;;;;;;5071626;28;20247;-67
2023/12/13 00:41:36;;;;;;;4.27;3.03;;;7.00;99.90;;;;;;5073201;28;20229;-67
2023/12/13 00:44:04;;;;;;;3.63;2.70;;;7.00;99.90;;;;;;5055214;28;20548;-68
2023/12/13 00:46:31;;;;;;;6.33;2.77;;;7.00;99.90;;;;;;5073362;28;20197;-68
2023/12/13 00:48:58;;;;;;;5.13;2.87;;;7.00;99.90;;;;;;5073042;28;20276;-68
2023/12/13 00:51:25;;;;;;;5.70;3.07;;;7.00;99.90;;;;;;5073003;28;20272;-68
2023/12/13 00:53:54;;;;;;;4.97;3.03;;;7.00;99.90;;;;;;5054616;28;20227;-69
2023/12/13 00:56:21;;;;;;;4.90;2.80;;;7.00;99.90;;;;;;5072836;28;20256;-68
2023/12/13 00:58:48;;;;;;;6.57;3.27;;;7.00;99.90;;;;;;5050955;28;20193;-68
2023/12/13 01:01:16;;;;;;;3.23;2.77;;;7.00;99.90;;;;;;5073297;28;20702;-69
2023/12/13 01:03:43;;;;;;;5.57;2.77;;;7.10;99.90;;;;;;5051157;28;20302;-68
2023/12/13 01:06:10;;;;;;;4.57;3.00;;;7.10;99.90;;;;;;5046988;28;20225;-68
2023/12/13 01:08:38;;;;;;;3.43;2.83;;;7.10;99.90;;;;;;5070967;28;20206;-69
2023/12/13 01:11:09;;;;;;;4.10;2.90;;;7.10;99.90;;;;;;5073105;28;20543;-69
2023/12/13 01:13:36;;;;;;;4.47;2.80;;;7.10;99.90;;;;;;5073451;28;20224;-69
2023/12/13 01:16:04;;;;;;;5.37;3.00;;;7.10;99.90;;;;;;5053423;28;20244;-69
2023/12/13 01:18:31;;;;;;;4.43;3.17;;;7.10;99.90;;;;;;5073121;28;20193;-69
2023/12/13 01:20:58;;;;;;;4.63;3.13;;;7.10;99.90;;;;;;5055255;28;20264;-69
2023/12/13 01:23:27;;;;;;;4.37;3.20;;;7.10;99.90;;;;;;5072583;28;20193;-69
2023/12/13 01:25:54;;;;;;;3.57;2.70;;;7.00;99.90;;;;;;5055130;28;20683;-69
2023/12/13 01:28:22;;;;;;;5.10;2.87;;;7.00;99.90;;;;;;5073149;28;20293;-70
2023/12/13 01:30:49;;;;;;;3.00;2.70;;;7.00;99.90;;;;;;5072820;28;20199;-69
2023/12/13 01:33:16;;;;;;;3.97;2.80;;;7.00;99.90;;;;;;5073066;28;20193;-69
2023/12/13 01:35:43;;;;;;;7.77;3.73;;;7.00;99.90;;;;;;5071802;28;20296;-69
2023/12/13 01:38:10;;;;;;;4.50;3.30;;;7.00;99.90;;;;;;5072348;28;20198;-69
2023/12/13 01:40:37;;;;;;;4.73;3.20;;;7.00;99.90;;;;;;5054484;28;20232;-67
2023/12/13 01:43:06;;;;;;;5.27;3.07;;;7.00;99.90;;;;;;5072748;28;20221;-68
2023/12/13 01:45:34;;;;;;;7.27;3.30;;;6.90;99.90;;;;;;5071794;28;20686;-69
2023/12/13 01:48:01;;;;;;;6.70;3.70;;;6.90;99.90;;;;;;5072045;28;20202;-68
2023/12/13 01:50:29;;;;;;;6.47;3.90;;;6.90;99.90;;;;;;5072255;28;20218;-68
2023/12/13 01:52:56;;;;;;;9.50;4.37;;;6.90;99.90;;;;;;5072019;28;20276;-68
2023/12/13 01:55:23;;;;;;;10.23;4.13;;;6.90;99.90;;;;;;5071910;28;20196;-68
2023/12/13 01:57:50;;;;;;;7.17;4.10;;;6.90;99.90;;;;;;5072376;28;20232;-68
2023/12/13 02:00:18;;;;;;;7.40;4.40;;;6.90;99.90;;;;;;5072280;28;20283;-68
2023/12/13 02:02:47;;;;;;;13.33;5.20;;;6.90;99.90;;;;;;5071314;28;20233;-68
2023/12/13 02:05:15;;;;;;;10.13;4.83;;;6.90;99.90;;;;;;5072399;28;20607;-68
2023/12/13 02:07:43;;;;;;;9.50;4.30;;;7.00;99.90;;;;;;5070851;28;20633;-68
2023/12/13 02:10:11;;;;;;;8.30;4.70;;;7.00;99.90;;;;;;5072886;28;20280;-68
2023/12/13 02:12:38;;;;;;;8.17;4.90;;;7.00;99.90;;;;;;5071832;28;20197;-68
2023/12/13 02:15:06;;;;;;;8.30;4.50;;;7.00;99.90;;;;;;5072476;28;20276;-69
2023/12/13 02:17:33;;;;;;;10.50;4.80;;;7.00;99.90;;;;;;5053492;28;20324;-69
2023/12/13 02:20:02;;;;;;;11.13;5.27;;;7.00;99.90;;;;;;5072351;28;20190;-69
2023/12/13 02:22:31;;;;;;;6.30;3.83;;;7.00;99.90;;;;;;5071063;28;20628;-69
2023/12/13 02:25:01;;;;;;;8.73;4.40;;;7.00;99.90;;;;;;5071826;28;20212;-69
2023/12/13 02:27:29;;;;;;;5.13;3.63;;;7.00;99.90;;;;;;5053525;28;20368;-69
2023/12/13 02:29:57;;;;;;;9.33;4.77;;;6.90;99.90;;;;;;5071989;28;20194;-69
2023/12/13 02:32:24;;;;;;;6.83;3.77;;;6.90;99.90;;;;;;5068332;28;20282;-69
2023/12/13 02:34:51;;;;;;;7.03;3.27;;;6.90;99.90;;;;;;5071968;28;20201;-69
2023/12/13 02:37:19;;;;;;;9.03;3.87;;;6.90;99.90;;;;;;5070109;28;20698;-69
2023/12/13 02:39:48;;;;;;;10.43;4.03;;;6.90;99.90;;;;;;5071862;28;20210;-69
2023/12/13 02:42:15;;;;;;;8.33;4.03;;;6.90;99.90;;;;;;5071100;28;20288;-69
2023/12/13 02:44:42;;;;;;;6.53;4.00;;;6.90;99.90;;;;;;5069566;28;20604;-69
2023/12/13 02:47:10;;;;;;;6.70;4.03;;;6.90;99.90;;;;;;5070496;28;20264;-69
2023/12/13 02:49:37;;;;;;;7.33;3.87;;;6.90;99.90;;;;;;5049342;28;20200;-69
2023/12/13 02:52:04;;;;;;;6.70;3.87;;;6.80;99.90;;;;;;5070958;28;20591;-69
2023/12/13 02:54:32;;;;;;;8.70;4.23;;;6.80;99.90;;;;;;5070939;28;20185;-69
2023/12/13 02:57:00;;;;;;;7.97;5.10;;;6.80;99.90;;;;;;5070329;28;20209;-69
2023/12/13 02:59:27;;;;;;;11.43;5.87;;;6.80;99.90;;;;;;5071463;28;20213;-69
2023/12/13 03:01:54;;;;;;;13.70;6.47;;;6.70;99.90;;;;;;5070544;28;20228;-69
2023/12/13 03:04:21;;;;;;;15.90;6.00;;;6.70;99.90;;;;;;5048582;28;20253;-69
2023/12/13 03:06:48;;;;;;;14.43;5.13;;;6.60;99.90;;;;;;5069433;28;20196;-69
2023/12/13 03:09:15;;;;;;;9.30;5.37;;;6.70;99.90;;;;;;5070589;28;20220;-69
2023/12/13 03:11:42;;;;;;;10.00;5.33;;;6.70;99.90;;;;;;5071061;28;20615;-69
2023/12/13 03:14:10;;;;;;;10.10;5.53;;;6.70;99.90;;;;;;5070888;28;20221;-69
2023/12/13 03:16:37;;;;;;;11.83;5.77;;;6.70;99.90;;;;;;5070363;28;20205;-69
2023/12/13 03:19:04;;;;;;;10.70;5.23;;;6.70;99.90;;;;;;5070876;28;20212;-69
2023/12/13 03:21:31;;;;;;;10.30;5.13;;;6.70;99.90;;;;;;5063505;28;20193;-69
2023/12/13 03:23:58;;;;;;;10.67;4.50;;;6.70;99.90;;;;;;5070361;28;20235;-69
2023/12/13 03:26:25;;;;;;;6.70;4.33;;;6.70;99.90;;;;;;5070391;28;20196;-68
2023/12/13 03:28:52;;;;;;;9.03;5.17;;;6.60;99.90;;;;;;5062563;28;20273;-68
2023/12/13 03:31:21;;;;;;;13.53;5.87;;;6.60;99.90;;;;;;5070236;28;20193;-68
2023/12/13 03:33:48;;;;;;;10.57;5.10;;;6.70;99.90;;;;;;5070195;28;20745;-68
2023/12/13 03:36:16;;;;;;;13.77;5.90;;;6.70;99.90;;;;;;5051684;28;20209;-69
2023/12/13 03:38:44;;;;;;;12.90;6.20;;;6.70;99.90;;;;;;5070301;28;20199;-69
2023/12/13 03:41:11;;;;;;;10.63;5.17;;;6.70;99.90;;;;;;5051955;28;20200;-68
2023/12/13 03:43:38;;;;;;;9.87;5.60;;;6.70;99.90;;;;;;5070084;28;20633;-68
2023/12/13 03:46:06;;;;;;;10.50;5.83;;;6.80;99.90;;;;;;5070132;28;20280;-68
2023/12/13 03:48:34;;;;;;;12.33;5.30;;;6.80;99.90;;;;;;5069241;28;20193;-68
2023/12/13 03:51:01;;;;;;;7.83;4.30;;;6.90;99.90;;;;;;5069564;28;20197;-68
2023/12/13 03:53:29;;;;;;;11.27;5.50;;;6.90;99.90;;;;;;5069843;28;20205;-68
2023/12/13 03:55:57;;;;;;;12.00;5.40;;;6.90;99.90;;;;;;5062849;28;20276;-68
2023/12/13 03:58:24;;;;;;;8.53;4.83;;;6.90;99.90;;;;;;5070305;28;20727;-68
2023/12/13 04:00:51;;;;;;;9.17;4.67;;;6.90;99.90;;;;;;5070204;28;20240;-68
2023/12/13 04:03:18;;;;;;;7.83;5.07;;;6.90;99.90;;;;;;5044062;28;20261;-68
2023/12/13 04:05:47;;;;;;;7.60;4.73;;;6.90;99.90;;;;;;5048765;28;20225;-68
2023/12/13 04:08:14;;;;;;;5.33;3.93;;;6.90;99.90;;;;;;5049311;28;20285;-69
2023/12/13 04:10:41;;;;;;;6.27;4.07;;;6.90;99.90;;;;;;5048931;28;20288;-68
2023/12/13 04:13:08;;;;;;;6.67;4.27;;;6.90;99.90;;;;;;5055708;28;20279;-68
2023/12/13 04:15:35;;;;;;;8.00;4.40;;;6.90;99.90;;;;;;5054932;28;20194;-68
2023/12/13 04:18:02;;;;;;;4.03;3.27;;;6.90;99.90;;;;;;5055377;28;20214;-69
2023/12/13 04:20:29;;;;;;;4.10;3.53;;;6.90;99.90;;;;;;5038682;28;20198;-69
2023/12/13 04:22:57;;;;;;;7.43;4.00;;;6.90;99.90;;;;;;5054319;28;20331;-69
2023/12/13 04:25:24;;;;;;;3.90;3.37;;;6.90;99.90;;;;;;5056104;28;20229;-67
2023/12/13 04:27:51;;;;;;;4.67;3.20;;;7.00;99.90;;;;;;5035467;28;20565;-68
2023/12/13 04:30:18;;;;;;;5.60;3.20;;;7.00;99.90;;;;;;5055920;28;20263;-67
2023/12/13 04:32:45;;;;;;;5.47;3.40;;;6.90;99.90;;;;;;5053999;28;20672;-68
2023/12/13 04:35:12;;;;;;;3.80;3.07;;;6.90;99.90;;;;;;5052604;28;20279;-68
2023/12/13 04:37:39;;;;;;;4.90;3.70;;;6.90;99.90;;;;;;5054763;28;20217;-68
2023/12/13 04:40:08;;;;;;;6.27;3.73;;;7.00;99.90;;;;;;5056542;28;20193;-68
2023/12/13 04:42:35;;;;;;;5.17;3.63;;;7.00;99.90;;;;;;5049167;28;20256;-67
2023/12/13 04:45:04;;;;;;;4.53;3.40;;;7.00;99.90;;;;;;5029115;28;20194;-67
2023/12/13 04:47:31;;;;;;;3.43;3.10;;;7.00;99.90;;;;;;5037684;28;20205;-67
2023/12/13 04:49:58;;;;;;;6.83;4.80;;;6.90;99.90;;;;;;5054939;28;20222;-67
2023/12/13 04:52:25;;;;;;;6.93;4.10;;;7.00;99.90;;;;;;5047653;28;20297;-67
2023/12/13 04:54:52;;;;;;;8.07;4.33;;;7.00;99.90;;;;;;5055298;28;20202;-67
2023/12/13 04:57:21;;;;;;;5.97;4.03;;;7.00;99.90;;;;;;5055209;28;20210;-67
2023/12/13 04:59:47;;;;;;;7.30;4.70;;;7.00;99.90;;;;;;5056418;28;20688;-67
2023/12/13 05:02:14;;;;;;;6.03;4.47;;;7.00;99.90;;;;;;5055110;28;20292;-67
2023/12/13 05:04:42;;;;;;;7.40;4.13;;;7.00;99.90;;;;;;5048298;28;20229;-67
2023/12/13 05:07:09;;;;;;;4.77;3.70;;;6.90;99.90;;;;;;5054267;28;20193;-67
2023/12/13 05:09:36;;;;;;;6.57;3.60;;;6.90;99.90;;;;;;5038352;28;20288;-67
2023/12/13 05:12:03;;;;;;;4.60;3.30;;;6.90;99.90;;;;;;5054284;28;20198;-68
2023/12/13 05:14:31;;;;;;;4.60;3.30;;;6.90;99.90;;;;;;5056447;28;20200;-67
2023/12/13 05:16:58;;;;;;;6.47;3.03;;;6.90;99.90;;;;;;5054290;28;20634;-67
2023/12/13 05:19:25;;;;;;;4.90;3.03;;;6.90;99.90;;;;;;5054895;28;20275;-68
2023/12/13 05:21:52;;;;;;;4.17;3.13;;;6.90;99.90;;;;;;5053557;28;20620;-68
2023/12/13 05:24:19;;;;;;;3.53;3.03;;;6.90;99.90;;;;;;5039885;28;20600;-68
2023/12/13 05:26:46;;;;;;;7.17;3.40;;;6.90;99.90;;;;;;5048062;28;20560;-68
2023/12/13 05:29:13;;;;;;;6.77;4.10;;;6.90;99.90;;;;;;5052783;28;20240;-68
2023/12/13 05:31:42;;;;;;;5.70;4.10;;;6.90;99.90;;;;;;5049696;28;20209;-69
2023/12/13 05:34:09;;;;;;;4.53;3.47;;;6.90;99.90;;;;;;5052969;28;20265;-69
2023/12/13 05:36:36;;;;;;;6.93;3.70;;;6.90;99.90;;;;;;5051386;28;20194;-68
2023/12/13 05:39:04;;;;;;;5.40;3.50;;;7.00;99.90;;;;;;5052346;28;20221;-68
2023/12/13 05:41:31;;;;;;;3.83;2.77;;;7.00;99.90;;;;;;5033922;28;20202;-69
2023/12/13 05:43:58;;;;;;;4.57;3.27;;;7.00;99.90;;;;;;5052915;28;20281;-69
2023/12/13 05:46:25;;;;;;;3.80;3.00;;;6.90;99.90;;;;;;5045195;28;20542;-69
2023/12/13 05:48:53;;;;;;;4.73;2.83;;;6.90;99.90;;;;;;5052636;28;20194;-69
2023/12/13 05:51:20;;;;;;;5.03;3.03;;;6.90;99.90;;;;;;5051542;28;20284;-69
2023/12/13 05:53:47;;;;;;;4.07;2.90;;;6.90;99.90;;;;;;5052117;28;20198;-67
2023/12/13 05:56:14;;;;;;;6.27;3.77;;;6.90;99.90;;;;;;5051889;28;20286;-68
2023/12/13 05:58:41;;;;;;;5.37;3.97;;;6.90;99.90;;;;;;5052015;28;20264;-68
2023/12/13 06:01:08;;;;;;;6.40;3.47;;;6.90;99.90;;;;;;5051382;28;20229;-69
2023/12/13 06:03:35;;;;;;;6.63;4.40;;;6.90;99.90;;;;;;5051909;28;20254;-69
2023/12/13 06:06:05;;;;;;;5.33;3.80;;;6.90;99.90;;;;;;5050468;28;20621;-68
2023/12/13 06:08:33;;;;;;;8.20;5.17;;;6.90;99.90;;;;;;5049035;28;20269;-68
2023/12/13 06:11:00;;;;;;;7.93;5.30;;;6.90;99.90;;;;;;5035211;28;20670;-68
2023/12/13 06:13:27;;;;;;;9.43;5.23;;;6.90;99.90;;;;;;5050670;28;20675;-69
2023/12/13 06:15:54;;;;;;;7.00;4.57;;;7.00;99.90;;;;;;5051911;28;20229;-67
2023/12/13 06:18:21;;;;;;;4.87;4.20;;;6.90;99.90;;;;;;5031740;28;20261;-67
2023/12/13 06:20:48;;;;;;;5.60;4.03;;;6.90;99.90;;;;;;5051158;28;20288;-68
2023/12/13 06:23:17;;;;;;;7.27;4.00;;;6.90;99.90;;;;;;5051690;28;20281;-68
2023/12/13 06:25:44;;;;;;;5.93;3.50;;;6.80;99.90;;;;;;5051789;28;20624;-68
2023/12/13 06:28:11;;;;;;;5.57;3.73;;;6.80;99.90;;;;;;5052015;28;20193;-69
2023/12/13 06:30:38;;;;;;;6.30;4.43;;;6.90;99.90;;;;;;5051527;28;20325;-68
2023/12/13 06:33:05;;;;;;;5.27;3.37;;;6.90;99.90;;;;;;5033211;28;20206;-69
2023/12/13 06:35:32;;;;;;;4.83;3.20;;;6.90;99.90;;;;;;5051271;28;20280;-70
2023/12/13 06:37:59;;;;;;;5.20;3.13;;;7.00;99.90;;;;;;5051369;28;20220;-69
2023/12/13 06:40:27;;;;;;;3.53;2.87;;;6.90;99.90;;;;;;5051880;28;20197;-69
2023/12/13 06:42:54;;;;;;;3.00;2.67;;;6.90;99.90;;;;;;5051724;28;20648;-68
2023/12/13 06:45:21;;;;;;;4.40;2.80;;;6.90;99.90;;;;;;5051896;28;20230;-68
2023/12/13 06:47:49;;;;;;;2.87;2.57;;;6.90;99.90;;;;;;5051156;28;20221;-69
2023/12/13 06:50:16;;;;;;;2.93;2.37;;;6.90;99.90;;;;;;5051721;28;20198;-69
2023/12/13 06:52:43;;;;;;;3.87;2.80;;;6.90;99.90;;;;;;5047889;28;20369;-69
2023/12/13 06:55:10;;;;;;;5.20;3.40;;;6.90;99.90;;;;;;5049180;28;20189;-68
2023/12/13 06:57:39;;;;;;;4.33;3.47;;;6.90;99.90;;;;;;5050307;28;20316;-68
2023/12/13 07:00:08;;;;;;;7.20;4.40;;;6.90;99.90;;;;;;5051299;28;20198;-68
2023/12/13 07:02:36;;;;;;;7.33;4.07;;;6.90;99.90;;;;;;5049763;28;20203;-68
2023/12/13 07:05:03;;;;;;;9.47;5.30;;;6.90;99.90;;;;;;5050838;28;20320;-68
2023/12/13 07:07:30;;;;;;;7.93;4.70;;;6.90;99.90;;;;;;5048362;28;20251;-69
2023/12/13 07:09:57;;;;;;;6.27;3.70;;;6.90;99.90;;;;;;5051467;28;20284;-68
2023/12/13 07:12:27;;;;;;;5.67;3.67;;;6.90;99.90;;;;;;5049117;28;20730;-68
2023/12/13 07:14:56;;;;;;;5.40;3.60;;;6.80;99.90;;;;;;5051326;28;20280;-68
2023/12/13 07:17:23;;;;;;;6.93;4.00;;;6.80;99.90;;;;;;5049015;28;20214;-68
2023/12/13 07:19:52;;;;;;;6.00;3.50;;;6.80;99.90;;;;;;5051101;28;20273;-68
2023/12/13 07:22:19;;;;;;;4.90;3.63;;;6.80;99.90;;;;;;5048373;28;20332;-69
2023/12/13 07:24:46;;;;;;;5.87;3.60;;;6.90;99.90;;;;;;5052886;28;20717;-69
2023/12/13 07:27:13;;;;;;;4.77;3.47;;;6.90;99.90;;;;;;5048975;28;20573;-69
2023/12/13 07:29:42;;;;;;;3.33;2.53;;;6.80;99.90;;;;;;5051092;28;20276;-69
2023/12/13 07:32:10;;;;;;;2.87;2.50;;;6.80;99.90;;;;;;5048742;28;20694;-69
2023/12/13 07:34:37;;;;;;;3.53;2.73;;;6.80;99.90;;;;;;5050619;28;20288;-68
2023/12/13 07:37:07;;;;;;;2.73;2.50;;;6.80;99.90;;;;;;5049455;28;20208;-68
2023/12/13 07:39:36;;;;;;;6.50;3.60;;;6.80;99.90;;;;;;5049336;28;20202;-69
2023/12/13 07:42:03;;;;;;;4.50;3.60;;;6.80;99.90;;;;;;5049417;28;20550;-67
2023/12/13 07:44:32;;;;;;;7.20;4.40;;;6.80;99.90;;;;;;5032791;28;20201;-68
2023/12/13 07:47:00;;;;;;;7.93;4.50;;;6.80;99.90;;;;;;5048905;28;20201;-68
2023/12/13 07:49:28;;;;;;;4.77;3.53;;;6.80;99.90;;;;;;5032440;28;20673;-68
2023/12/13 07:51:55;;;;;;;4.80;3.97;;;6.90;99.90;;;;;;5049187;28;20377;-67
2023/12/13 07:54:22;;;;;;;6.07;3.70;;;6.90;99.90;;;;;;5049942;28;20190;-69
2023/12/13 07:56:52;;;;;;;3.83;2.80;;;6.90;99.90;;;;;;5046614;28;20745;-69
2023/12/13 07:59:19;;;;;;;3.53;2.93;;;6.90;99.90;;;;;;5050212;28;20669;-69
2023/12/13 08:01:46;;;;;;;3.97;2.73;;;6.80;99.90;;;;;;5049617;28;20205;-69
2023/12/13 08:04:13;;;;;;;4.07;2.93;;;6.80;99.90;;;;;;5032032;28;20320;-69
2023/12/13 08:06:42;;;;;;;4.00;2.97;;;6.80;99.90;;;;;;5049081;28;20534;-67
2023/12/13 08:09:10;;;;;;;3.33;2.60;;;6.90;99.90;;;;;;5048964;28;20280;-68
2023/12/13 08:11:38;;;;;;;3.97;3.00;;;6.90;99.90;;;;;;5049263;28;20677;-67
2023/12/13 08:14:05;;;;;;;3.40;3.07;;;6.90;99.90;;;;;;5049149;28;20268;-69
2023/12/13 08:16:32;;;;;;;4.60;3.00;;;6.90;99.90;;;;;;5049117;28;20550;-69
2023/12/13 08:18:59;;;;;;;4.93;2.83;;;6.90;99.90;;;;;;5048889;28;20529;-69
2023/12/13 08:21:26;;;;;;;4.40;2.87;;;6.90;99.90;;;;;;5049838;28;20252;-69
2023/12/13 08:23:54;;;;;;;2.73;2.43;;;6.90;99.90;;;;;;5045740;28;20602;-68
2023/12/13 08:26:21;;;;;;;4.13;3.17;;;6.90;99.90;;;;;;5039476;28;20276;-68
2023/12/13 08:28:49;;;;;;;4.47;2.70;;;6.90;99.90;;;;;;5049618;28;20626;-68
2023/12/13 08:31:17;;;;;;;4.53;3.10;;;6.90;99.90;;;;;;5049674;28;20241;-68
2023/12/13 08:33:44;;;;;;;4.50;2.93;;;6.90;99.90;;;;;;5031761;28;20656;-69
2023/12/13 08:36:11;;;;;;;6.63;4.27;;;6.90;99.90;;;;;;5031186;28;20205;-69
2023/12/13 08:38:40;;;;;;;7.93;5.33;;;6.90;99.90;;;;;;5049061;28;20214;-68
2023/12/13 08:41:11;;;;;;;8.47;4.80;;;7.00;99.90;;;;;;5049174;28;20313;-69
2023/12/13 08:43:39;;;;;;;6.57;4.43;;;7.00;99.90;;;;;;5048373;28;20202;-69
2023/12/13 08:46:06;;;;;;;5.87;4.13;;;7.00;99.90;;;;;;5049590;28;20190;-69
2023/12/13 08:48:33;;;;;;;5.97;4.13;;;7.00;99.90;;;;;;5049603;28;20199;-68
2023/12/13 08:51:00;;;;;;;6.53;4.10;;;7.00;99.90;;;;;;5048926;28;20261;-68
2023/12/13 08:53:27;;;;;;;7.90;4.47;;;7.10;99.90;;;;;;5048703;28;20237;-68
2023/12/13 08:55:54;;;;;;;8.47;4.10;;;7.10;99.90;;;;;;5031114;28;20658;-68
2023/12/13 08:58:23;;;;;;;6.97;4.30;;;7.10;99.90;;;;;;5051085;28;20280;-67
2023/12/13 09:00:50;;;;;;;6.70;4.00;;;7.10;99.90;;;;;;5052646;28;20252;-68
2023/12/13 09:03:19;;;;;;;5.77;3.87;;;7.10;99.90;;;;;;5053131;28;20230;-68
2023/12/13 09:05:46;;;;;;;5.97;3.70;;;7.10;99.90;;;;;;5055614;28;20205;-68
2023/12/13 09:08:13;;;;;;;3.53;3.00;;;7.10;99.90;;;;;;5034932;28;20194;-68
2023/12/13 09:10:40;;;;;;;5.23;3.80;;;7.20;99.90;;;;;;5034004;28;20550;-68
2023/12/13 09:13:07;;;;;;;6.50;4.10;;;7.20;99.90;;;;;;5039959;28;20441;-68
2023/12/13 09:15:36;;;;;;;4.67;3.33;;;7.10;99.90;;;;;;5051369;28;20232;-68
2023/12/13 09:18:03;;;;;;;6.30;4.20;;;7.10;99.90;;;;;;5040784;28;20222;-68
2023/12/13 09:20:30;;;;;;;4.80;4.00;;;7.20;99.90;;;;;;5051585;28;20194;-68
2023/12/13 09:22:57;;;;;;;7.50;4.80;;;7.10;99.90;;;;;;5041169;28;20198;-68
2023/12/13 09:25:25;;;;;;;6.27;4.13;;;7.10;99.90;;;;;;5035262;28;20653;-69
2023/12/13 09:27:52;;;;;;;6.63;4.20;;;7.10;99.90;;;;;;5048408;28;20213;-68
2023/12/13 09:30:19;;;;;;;8.53;5.53;;;7.10;99.90;;;;;;5052020;28;20201;-68
2023/12/13 09:32:48;;;;;;;6.60;5.00;;;7.00;99.90;;;;;;5045603;28;20661;-68
2023/12/13 09:35:15;;;;;;;8.00;4.27;;;7.00;99.90;;;;;;5052500;28;20387;-68
2023/12/13 09:37:42;;;;;;;5.60;4.13;;;7.00;99.90;;;;;;5050233;28;20595;-68
2023/12/13 09:40:15;;;;;;;5.13;3.73;;;7.00;99.90;;;;;;5051658;28;20214;-68
2023/12/13 09:42:45;;;;;;;15.07;5.23;;;7.00;99.90;;;;;;5051313;28;20190;-69
2023/12/13 09:45:17;;;;;;;10.67;5.20;;;7.00;99.90;;;;;;5051914;28;20193;-69
2023/12/13 09:47:46;;;;;;;6.57;4.60;;;7.00;99.90;;;;;;5052195;28;20280;-69
2023/12/13 09:50:14;;;;;;;7.07;4.87;;;7.00;99.90;;;;;;5039744;28;20553;-69
2023/12/13 09:52:43;;;;;;;8.07;4.80;;;7.00;99.90;;;;;;5051690;28;20191;-69
2023/12/13 09:55:11;;;;;;;7.47;4.73;;;7.00;99.90;;;;;;5052468;28;20198;-69
2023/12/13 09:57:38;;;;;;;9.53;6.33;;;7.00;99.90;;;;;;5051778;28;20198;-68
2023/12/13 10:00:06;;;;;;;9.23;5.80;;;7.00;99.90;;;;;;5051415;28;20206;-68
2023/12/13 10:02:35;;;;;;;10.27;5.90;;;7.00;99.90;;;;;;5051380;28;20217;-68
2023/12/13 10:05:05;;;;;;;10.20;6.43;;;7.00;99.90;;;;;;5052043;28;20299;-68
2023/12/13 10:07:32;;;;;;;10.77;6.13;;;7.00;99.90;;;;;;5048610;28;20631;-68
2023/12/13 10:09:59;;;;;;;7.87;5.33;;;7.00;99.90;;;;;;5052067;28;20191;-68
2023/12/13 10:12:26;;;;;;;11.87;6.67;;;7.10;99.90;;;;;;5051545;28;20225;-68
2023/12/13 10:14:53;;;;;;;10.17;5.87;;;7.10;99.90;;;;;;5052534;28;20277;-68
2023/12/13 10:17:21;;;;;;;8.77;5.53;;;7.10;99.90;;;;;;5051170;28;20626;-69
2023/12/13 10:19:49;;;;;;;8.93;5.60;;;7.10;99.90;;;;;;5041341;28;20218;-69
2023/12/13 10:22:18;;;;;;;8.50;5.50;;;7.20;99.90;;;;;;5051041;28;20273;-69
2023/12/13 10:24:47;;;;;;;8.60;5.43;;;7.20;99.90;;;;;;5025518;28;20260;-68
2023/12/13 10:27:15;;;;;;;6.70;4.63;;;7.20;99.90;;;;;;5050912;28;20224;-68
2023/12/13 10:29:42;;;;;;;9.07;5.40;;;7.20;99.90;;;;;;5043883;28;20182;-68
2023/12/13 10:32:09;;;;;;;8.97;5.87;;;7.20;99.90;;;;;;5051268;28;20581;-68
2023/12/13 10:34:37;;;;;;;8.57;5.27;;;7.20;99.90;;;;;;5051797;28;20190;-68
2023/12/13 10:37:07;;;;;;;8.17;4.77;;;7.20;99.90;;;;;;5050676;28;20613;-68
2023/12/13 10:39:36;;;;;;;11.23;5.83;;;7.20;99.90;;;;;;5051949;28;20257;-68
2023/12/13 10:42:04;;;;;;;9.17;5.43;;;7.20;99.90;;;;;;5051040;28;20220;-68
2023/12/13 10:44:32;;;;;;;8.77;5.23;;;7.30;99.90;;;;;;5046739;28;20206;-69
2023/12/13 10:47:02;;;;;;;6.90;4.90;;;7.30;99.90;;;;;;5049901;28;20213;-68
2023/12/13 10:49:31;;;;;;;6.73;4.87;;;7.30;99.90;;;;;;5051741;28;20588;-69
2023/12/13 10:51:59;;;;;;;10.37;5.57;;;7.30;99.90;;;;;;5032323;28;20206;-69
2023/12/13 10:54:28;;;;;;;6.50;4.50;;;7.30;99.90;;;;;;5051049;28;20195;-69
2023/12/13 10:56:57;;;;;;;5.13;3.63;;;7.30;99.90;;;;;;5046914;28;20275;-68
2023/12/13 10:59:25;;;;;;;7.87;3.30;;;7.30;99.90;;;;;;5050304;28;20756;-68
2023/12/13 11:01:54;;;;;;;3.90;3.50;;;7.30;99.90;;;;;;5051121;28;20202;-68
2023/12/13 11:04:22;;;;;;;3.33;2.70;;;7.30;99.90;;;;;;5050890;28;20589;-68
2023/12/13 11:06:49;;;;;;;3.43;2.67;;;7.30;99.90;;;;;;5048331;28;20217;-68
2023/12/13 11:09:18;;;;;;;4.03;3.30;;;7.30;99.90;;;;;;5050303;28;20228;-68
2023/12/13 11:11:46;;;;;;;4.93;3.07;;;7.30;99.90;;;;;;5049554;28;20198;-68
2023/12/13 11:14:17;;;;;;;6.83;4.03;;;7.30;99.90;;;;;;5032448;28;20325;-68
2023/12/13 11:16:47;;;;;;;5.77;3.80;;;7.30;99.90;;;;;;5050693;28;20615;-68
2023/12/13 11:19:19;;;;;;;5.17;3.50;;;7.40;99.90;;;;;;5049744;28;20681;-68
2023/12/13 11:21:47;;;;;;;4.90;3.27;;;7.40;99.90;;;;;;5049616;28;20190;-68
2023/12/13 11:24:19;;;;;;;5.10;3.47;;;7.40;99.90;;;;;;5050117;28;20715;-68
2023/12/13 11:26:50;;;;;;;3.37;2.83;;;7.40;99.90;;;;;;5043042;28;20198;-68
2023/12/13 11:29:21;;;;;;;5.33;2.90;;;7.40;99.90;;;;;;5050815;28;20191;-68
2023/12/13 11:31:53;;;;;;;4.53;3.20;;;7.40;99.90;;;;;;5050087;28;20196;-68
2023/12/13 11:34:32;;;;;;;5.70;3.43;;;7.50;99.90;;;;;;5026696;28;20214;-68
2023/12/13 11:37:01;;;;;;;5.13;3.57;;;7.50;99.90;;;;;;5045391;28;20228;-68
2023/12/13 11:39:29;;;;;;;4.27;3.00;;;7.50;99.90;;;;;;5050152;28;20347;-68
2023/12/13 11:41:56;;;;;;;4.50;3.30;;;7.50;99.90;;;;;;5049651;28;20201;-68
2023/12/13 11:44:28;;;;;;;6.20;2.87;;;7.50;99.90;;;;;;5050376;28;20194;-69
2023/12/13 11:46:56;;;;;;;4.23;3.03;;;7.50;99.90;;;;;;5049951;28;20198;-68
2023/12/13 11:49:23;;;;;;;3.70;2.63;;;7.40;99.90;;;;;;5050392;28;20293;-69
2023/12/13 11:51:50;;;;;;;3.83;2.63;;;7.50;99.90;;;;;;5049314;28;20195;-69
2023/12/13 11:54:18;;;;;;;3.47;2.50;;;7.40;99.90;;;;;;5049108;28;20218;-69
2023/12/13 11:56:45;;;;;;;3.37;2.47;;;7.40;99.90;;;;;;5043044;28;20217;-69
2023/12/13 11:59:13;;;;;;;4.10;2.97;;;7.40;99.90;;;;;;5049905;28;20225;-68
2023/12/13 12:01:41;;;;;;;4.93;2.77;;;7.50;99.90;;;;;;5049266;28;20203;-68
2023/12/13 12:04:09;;;;;;;6.30;3.13;;;7.50;99.90;;;;;;5049792;28;20709;-68
2023/12/13 12:06:36;;;;;;;7.03;3.70;;;7.50;99.90;;;;;;5044368;28;20220;-68
2023/12/13 12:09:05;;;;;;;6.80;3.57;;;7.50;99.90;;;;;;5049582;28;20598;-68
2023/12/13 12:11:33;;;;;;;4.50;2.97;;;7.50;99.90;;;;;;5049241;28;20195;-68
2023/12/13 12:14:01;;;;;;;6.80;3.37;;;7.50;99.90;;;;;;5049122;28;20206;-68
2023/12/13 12:16:28;;;;;;;9.20;3.30;;;7.50;99.90;;;;;;5048734;28;20276;-68
2023/12/13 12:18:57;;;;;;;5.90;3.43;;;7.50;99.90;;;;;;5045764;28;20276;-68
2023/12/13 12:21:24;;;;;;;6.47;3.50;;;7.50;99.90;;;;;;5047079;28;20179;-68
2023/12/13 12:23:52;;;;;;;4.83;3.00;;;7.50;99.90;;;;;;5042992;28;20249;-68
2023/12/13 12:26:19;;;;;;;7.27;3.10;;;7.50;99.90;;;;;;5046814;28;20195;-68
2023/12/13 12:28:47;;;;;;;7.40;3.00;;;7.50;99.90;;;;;;5031074;28;20237;-68
2023/12/13 12:31:14;;;;;;;5.67;2.90;;;7.50;99.90;;;;;;5049796;28;20205;-68
2023/12/13 12:33:41;;;;;;;3.17;2.60;;;7.50;99.90;;;;;;5052371;28;20229;-69
2023/12/13 12:36:11;;;;;;;2.97;2.27;;;7.50;99.90;;;;;;5053337;28;20206;-69
2023/12/13 12:38:37;;;;;;;3.50;2.00;;;7.50;99.90;;;;;;5053112;28;20606;-69
2023/12/13 12:41:04;;;;;;;2.63;2.07;;;7.50;99.90;;;;;;5053489;28;20224;-69
2023/12/13 12:43:33;;;;;;;4.63;2.53;;;7.50;99.90;;;;;;5052181;28;20227;-68
2023/12/13 12:46:00;;;;;;;7.00;3.27;;;7.50;99.90;;;;;;5051721;28;20194;-69
2023/12/13 12:48:27;;;;;;;6.00;3.13;;;7.50;99.90;;;;;;5053754;28;20561;-69
2023/12/13 12:50:54;;;;;;;3.53;2.30;;;7.50;99.90;;;;;;5045246;28;20210;-68
2023/12/13 12:53:23;;;;;;;7.17;3.37;;;7.50;99.90;;;;;;5032875;28;20264;-69
2023/12/13 12:55:50;;;;;;;5.97;2.83;;;7.50;99.90;;;;;;5051363;28;20205;-68
2023/12/13 12:58:18;;;;;;;3.40;2.43;;;7.50;99.90;;;;;;5053678;28;20248;-68